createdAt,value
2018-02-27T00:01:33.048Z,7.67
2018-02-27T00:04:00.931Z,10.60
2018-02-27T00:06:28.467Z,7.73
2018-02-27T00:08:56.184Z,9.27
2018-02-27T00:11:24.289Z,9.13
2018-02-27T00:13:52.000Z,8.50
2018-02-27T00:16:19.818Z,8.37
2018-02-27T00:18:47.705Z,9.57
2018-02-27T00:21:15.608Z,10.00
2018-02-27T00:23:43.081Z,11.03
2018-02-27T00:26:10.561Z,9.80
2018-02-27T00:28:38.348Z,9.43
2018-02-27T00:31:06.203Z,10.47
2018-02-27T00:33:33.755Z,9.13
2018-02-27T00:36:01.763Z,10.07
2018-02-27T00:38:29.223Z,10.90
2018-02-27T00:40:56.775Z,11.40
2018-02-27T00:43:24.875Z,10.13
2018-02-27T00:45:52.600Z,10.07
2018-02-27T00:48:20.487Z,12.33
2018-02-27T00:50:49.378Z,10.63
2018-02-27T00:53:18.163Z,10.17
2018-02-27T00:55:45.903Z,8.83
2018-02-27T00:58:13.868Z,8.50
2018-02-27T01:00:41.387Z,9.13
2018-02-27T01:03:08.907Z,8.30
2018-02-27T01:05:37.218Z,11.03
2018-02-27T01:08:05.343Z,8.70
2018-02-27T01:10:33.046Z,10.10
2018-02-27T01:13:00.816Z,7.63
2018-02-27T01:15:28.316Z,9.40
2018-02-27T01:17:55.827Z,7.50
2018-02-27T01:20:23.306Z,7.13
2018-02-27T01:22:50.812Z,6.20
2018-02-27T01:25:18.287Z,6.17
2018-02-27T01:27:46.005Z,6.20
2018-02-27T01:30:13.486Z,5.33
2018-02-27T01:32:40.943Z,5.40
2018-02-27T01:35:08.449Z,7.67
2018-02-27T01:37:35.979Z,5.37
2018-02-27T01:40:03.515Z,4.40
2018-02-27T01:42:31.039Z,4.97
2018-02-27T01:44:58.587Z,5.60
2018-02-27T01:47:26.087Z,4.80
2018-02-27T01:49:53.787Z,4.27
2018-02-27T01:52:22.285Z,4.70
2018-02-27T01:54:49.787Z,3.93
2018-02-27T01:57:17.523Z,3.77
2018-02-27T01:59:45.839Z,4.17
2018-02-27T02:02:14.271Z,7.03
2018-02-27T02:04:41.793Z,4.30
2018-02-27T02:07:09.797Z,4.57
2018-02-27T02:09:38.307Z,4.30
2018-02-27T02:12:05.831Z,4.43
2018-02-27T02:14:33.516Z,4.33
2018-02-27T02:17:01.015Z,3.80
2018-02-27T02:19:28.507Z,3.97
2018-02-27T02:21:56.263Z,5.03
2018-02-27T02:24:24.065Z,4.77
2018-02-27T02:26:52.315Z,4.73
2018-02-27T02:29:19.847Z,3.87
2018-02-27T02:31:47.614Z,4.00
2018-02-27T02:34:15.094Z,4.80
2018-02-27T02:36:43.281Z,4.80
2018-02-27T02:39:10.792Z,4.33
2018-02-27T02:41:38.338Z,4.80
2018-02-27T02:44:05.815Z,4.50
2018-02-27T02:46:33.275Z,3.87
2018-02-27T02:49:01.460Z,4.50
2018-02-27T02:51:29.376Z,5.13
2018-02-27T02:53:57.651Z,5.00
2018-02-27T02:56:25.104Z,4.90
2018-02-27T02:58:53.196Z,6.23
2018-02-27T03:01:21.316Z,4.50
2018-02-27T03:03:49.040Z,4.50
2018-02-27T03:06:17.289Z,4.90
2018-02-27T03:08:45.177Z,5.70
2018-02-27T03:11:12.694Z,5.93
2018-02-27T03:13:40.182Z,6.93
2018-02-27T03:16:08.506Z,5.43
2018-02-27T03:18:35.975Z,7.13
2018-02-27T03:21:04.504Z,6.13
2018-02-27T03:23:32.546Z,5.40
2018-02-27T03:26:00.544Z,6.25
2018-02-27T03:28:28.004Z,6.13
2018-02-27T03:30:55.485Z,6.40
2018-02-27T03:33:23.408Z,5.43
2018-02-27T03:35:51.689Z,5.07
2018-02-27T03:38:19.164Z,6.53
2018-02-27T03:40:46.683Z,6.10
2018-02-27T03:43:14.574Z,6.63
2018-02-27T03:45:42.051Z,6.13
2018-02-27T03:48:09.509Z,7.13
2018-02-27T03:50:36.982Z,6.77
2018-02-27T03:53:04.430Z,7.90
2018-02-27T03:55:31.935Z,5.10
2018-02-27T03:57:59.399Z,7.20
2018-02-27T04:00:26.866Z,8.63
2018-02-27T04:02:54.362Z,6.20
2018-02-27T04:05:21.831Z,6.63
2018-02-27T04:07:49.307Z,6.27
2018-02-27T04:10:16.806Z,6.13
2018-02-27T04:12:44.291Z,4.90
2018-02-27T04:15:11.803Z,5.50
2018-02-27T04:17:39.291Z,8.70
2018-02-27T04:20:06.752Z,6.57
2018-02-27T04:22:34.226Z,4.60
2018-02-27T04:25:01.714Z,6.93
2018-02-27T04:27:29.191Z,8.07
2018-02-27T04:29:56.653Z,5.13
2018-02-27T04:32:24.128Z,4.77
2018-02-27T04:34:51.607Z,8.83
2018-02-27T04:37:19.680Z,5.97
2018-02-27T04:39:47.179Z,7.73
2018-02-27T04:42:14.643Z,5.37
2018-02-27T04:44:42.123Z,5.63
2018-02-27T04:47:09.579Z,6.57
2018-02-27T04:49:37.055Z,5.87
2018-02-27T04:52:04.516Z,6.37
2018-02-27T04:54:32.000Z,7.63
2018-02-27T04:56:59.459Z,6.73
2018-02-27T04:59:26.950Z,5.13
2018-02-27T05:01:54.426Z,6.80
2018-02-27T05:04:21.899Z,6.40
2018-02-27T05:06:49.379Z,8.70
2018-02-27T05:09:16.843Z,6.73
2018-02-27T05:11:44.314Z,9.93
2018-02-27T05:14:11.778Z,7.13
2018-02-27T05:16:39.268Z,5.17
2018-02-27T05:19:06.739Z,5.20
2018-02-27T05:21:34.225Z,7.27
2018-02-27T05:24:01.683Z,10.40
2018-02-27T05:26:29.172Z,6.27
2018-02-27T05:28:56.633Z,6.77
2018-02-27T05:31:24.225Z,7.10
2018-02-27T05:33:51.683Z,8.47
2018-02-27T05:36:19.138Z,7.67
2018-02-27T05:38:46.619Z,8.27
2018-02-27T05:41:14.081Z,7.67
2018-02-27T05:43:41.568Z,7.33
2018-02-27T05:46:09.024Z,9.50
2018-02-27T05:48:36.500Z,8.10
2018-02-27T05:51:03.951Z,9.07
2018-02-27T05:53:31.443Z,9.57
2018-02-27T05:55:58.912Z,8.73
2018-02-27T05:58:26.396Z,9.33
2018-02-27T06:00:53.866Z,9.20
2018-02-27T06:03:21.343Z,8.07
2018-02-27T06:05:48.804Z,9.30
2018-02-27T06:08:16.300Z,12.03
2018-02-27T06:10:43.762Z,9.87
2018-02-27T06:13:11.262Z,11.90
2018-02-27T06:15:38.719Z,11.13
2018-02-27T06:18:06.187Z,11.53
2018-02-27T06:20:33.675Z,10.30
2018-02-27T06:23:01.141Z,13.33
2018-02-27T06:25:28.630Z,10.67
2018-02-27T06:27:56.095Z,12.10
2018-02-27T06:30:23.575Z,11.37
2018-02-27T06:32:51.038Z,10.50
2018-02-27T06:35:18.511Z,9.27
2018-02-27T06:37:45.992Z,12.10
2018-02-27T06:40:13.485Z,11.17
2018-02-27T06:42:40.948Z,13.70
2018-02-27T06:45:08.431Z,13.43
2018-02-27T06:47:35.889Z,13.33
2018-02-27T06:50:03.380Z,14.67
2018-02-27T06:52:30.852Z,15.97
2018-02-27T06:54:58.358Z,16.07
2018-02-27T06:57:25.827Z,14.63
2018-02-27T06:59:53.319Z,17.50
2018-02-27T07:02:20.789Z,20.03
2018-02-27T07:04:48.290Z,19.67
2018-02-27T07:07:15.755Z,16.77
2018-02-27T07:09:43.236Z,16.13
2018-02-27T07:12:10.734Z,16.33
2018-02-27T07:14:38.212Z,14.83
2018-02-27T07:17:05.702Z,17.07
2018-02-27T07:19:33.171Z,16.17
2018-02-27T07:22:00.655Z,17.63
2018-02-27T07:24:28.123Z,14.77
2018-02-27T07:26:55.616Z,11.43
2018-02-27T07:29:23.078Z,15.63
2018-02-27T07:31:50.572Z,14.30
2018-02-27T07:34:18.038Z,14.57
2018-02-27T07:36:45.533Z,15.23
2018-02-27T07:39:12.998Z,13.20
2018-02-27T07:41:40.519Z,18.63
2018-02-27T07:44:07.981Z,12.93
2018-02-27T07:46:35.470Z,17.00
2018-02-27T07:49:02.947Z,10.40
2018-02-27T07:51:30.440Z,13.03
2018-02-27T07:53:57.908Z,13.37
2018-02-27T07:56:25.394Z,12.40
2018-02-27T07:58:52.879Z,12.00
2018-02-27T08:01:20.362Z,13.50
2018-02-27T08:03:47.816Z,9.67
2018-02-27T08:06:15.298Z,9.63
2018-02-27T08:08:42.790Z,11.67
2018-02-27T08:11:10.280Z,12.30
2018-02-27T08:13:37.752Z,10.73
2018-02-27T08:16:05.236Z,12.07
2018-02-27T08:18:32.700Z,11.23
2018-02-27T08:21:00.203Z,9.80
2018-02-27T08:23:27.671Z,10.20
2018-02-27T08:25:55.168Z,8.40
2018-02-27T08:28:22.630Z,11.17
2018-02-27T08:30:50.090Z,8.60
2018-02-27T08:33:17.570Z,8.83
2018-02-27T08:35:45.044Z,8.53
2018-02-27T08:38:12.523Z,10.93
2018-02-27T08:40:39.999Z,7.83
2018-02-27T08:43:07.475Z,8.63
2018-02-27T08:45:34.944Z,8.33
2018-02-27T08:48:02.429Z,10.43
2018-02-27T08:50:29.903Z,7.30
2018-02-27T08:52:57.396Z,8.10
2018-02-27T08:55:24.860Z,7.83
2018-02-27T08:57:52.341Z,9.83
2018-02-27T09:00:19.807Z,8.30
2018-02-27T09:02:47.330Z,9.30
2018-02-27T09:05:14.787Z,9.20
2018-02-27T09:07:42.273Z,10.07
2018-02-27T09:10:09.731Z,12.33
2018-02-27T09:12:37.223Z,9.17
2018-02-27T09:15:04.694Z,10.07
2018-02-27T09:17:32.182Z,9.90
2018-02-27T09:19:59.644Z,8.70
2018-02-27T09:22:27.137Z,9.13
2018-02-27T09:24:54.611Z,9.00
2018-02-27T09:27:22.086Z,8.57
2018-02-27T09:29:49.560Z,10.27
2018-02-27T09:32:17.035Z,9.53
2018-02-27T09:34:44.495Z,8.70
2018-02-27T09:37:11.978Z,7.87
2018-02-27T09:39:39.447Z,8.10
2018-02-27T09:42:06.980Z,7.17
2018-02-27T09:44:34.464Z,6.50
2018-02-27T09:47:01.972Z,7.20
2018-02-27T09:49:29.432Z,8.53
2018-02-27T09:51:56.900Z,6.80
2018-02-27T09:54:24.384Z,8.40
2018-02-27T09:56:51.855Z,8.57
2018-02-27T09:59:19.336Z,8.23
2018-02-27T10:01:46.804Z,7.73
2018-02-27T10:04:14.287Z,7.53
2018-02-27T10:06:41.752Z,8.30
2018-02-27T10:09:09.235Z,7.20
2018-02-27T10:11:36.695Z,9.00
2018-02-27T10:14:04.178Z,7.20
2018-02-27T10:16:31.645Z,6.30
2018-02-27T10:18:59.350Z,5.90
2018-02-27T10:21:26.815Z,5.90
2018-02-27T10:23:54.300Z,7.90
2018-02-27T10:26:21.756Z,6.20
2018-02-27T10:28:49.231Z,6.97
2018-02-27T10:31:16.687Z,6.73
2018-02-27T10:33:44.179Z,8.03
2018-02-27T10:36:11.665Z,4.83
2018-02-27T10:38:39.142Z,4.30
2018-02-27T10:41:07.392Z,4.67
2018-02-27T10:43:34.867Z,4.87
2018-02-27T10:46:02.330Z,4.97
2018-02-27T10:48:29.816Z,4.27
2018-02-27T10:50:57.285Z,8.03
2018-02-27T10:53:24.762Z,4.30
2018-02-27T10:55:52.222Z,6.87
2018-02-27T10:58:19.704Z,4.93
2018-02-27T11:01:01.819Z,7.23
2018-02-27T11:03:29.303Z,5.80
2018-02-27T11:05:56.777Z,4.47
2018-02-27T11:08:24.271Z,7.90
2018-02-27T11:10:51.727Z,5.93
2018-02-27T11:13:19.211Z,3.87
2018-02-27T11:15:46.689Z,3.90
2018-02-27T11:18:14.157Z,4.00
2018-02-27T11:20:41.634Z,3.67
2018-02-27T11:23:09.811Z,3.20
2018-02-27T11:25:37.292Z,4.33
2018-02-27T11:28:04.752Z,4.53
2018-02-27T11:30:32.240Z,3.40
2018-02-27T11:32:59.707Z,3.90
2018-02-27T11:35:27.196Z,3.93
2018-02-27T11:37:54.662Z,4.23
2018-02-27T11:40:22.151Z,5.27
2018-02-27T11:42:49.644Z,3.13
2018-02-27T11:45:17.131Z,3.17
2018-02-27T11:47:44.602Z,3.53
2018-02-27T11:50:12.093Z,3.53
2018-02-27T11:52:39.551Z,4.90
2018-02-27T11:55:07.036Z,3.50
2018-02-27T11:57:34.495Z,4.60
2018-02-27T12:00:01.967Z,3.87
2018-02-27T12:02:29.440Z,3.10
2018-02-27T12:04:56.927Z,3.23
2018-02-27T12:07:24.382Z,5.53
2018-02-27T12:09:51.891Z,2.70
2018-02-27T12:12:19.356Z,4.17
2018-02-27T12:14:46.845Z,5.97
2018-02-27T12:17:14.302Z,3.27
2018-02-27T12:19:41.794Z,2.73
2018-02-27T12:22:09.272Z,5.57
2018-02-27T12:24:36.764Z,3.60
2018-02-27T12:27:04.219Z,2.60
2018-02-27T12:29:31.708Z,2.53
2018-02-27T12:31:59.172Z,3.87
2018-02-27T12:34:26.655Z,2.93
2018-02-27T12:36:54.115Z,3.33
2018-02-27T12:39:21.578Z,3.73
2018-02-27T12:41:49.076Z,3.73
2018-02-27T12:44:16.539Z,3.77
2018-02-27T12:46:44.019Z,3.50
2018-02-27T12:49:11.487Z,3.20
2018-02-27T12:51:38.983Z,4.37
2018-02-27T12:54:06.448Z,4.60
2018-02-27T12:56:33.937Z,3.63
2018-02-27T12:59:01.470Z,3.23
2018-02-27T13:01:28.947Z,3.23
2018-02-27T13:03:56.399Z,2.90
2018-02-27T13:06:23.895Z,2.80
2018-02-27T13:08:51.352Z,3.90
2018-02-27T13:11:18.857Z,3.97
2018-02-27T13:13:46.313Z,3.17
2018-02-27T13:16:13.796Z,6.03
2018-02-27T13:18:41.248Z,4.47
2018-02-27T13:21:08.735Z,3.50
2018-02-27T13:23:36.342Z,3.77
2018-02-27T13:26:03.859Z,6.40
2018-02-27T13:28:31.316Z,2.70
2018-02-27T13:30:58.795Z,3.73
2018-02-27T13:33:26.275Z,2.73
2018-02-27T13:35:54.714Z,4.23
2018-02-27T13:38:22.168Z,4.03
2018-02-27T13:40:49.729Z,4.83
2018-02-27T13:43:17.192Z,2.57
2018-02-27T13:45:44.672Z,3.77
2018-02-27T13:48:12.137Z,3.17
2018-02-27T13:50:39.617Z,2.20
2018-02-27T13:53:07.067Z,3.73
2018-02-27T13:55:34.551Z,2.53
2018-02-27T13:58:02.002Z,2.23
2018-02-27T14:00:29.455Z,2.93
2018-02-27T14:02:56.927Z,2.50
2018-02-27T14:05:24.379Z,2.23
2018-02-27T14:07:51.868Z,3.40
2018-02-27T14:10:19.322Z,3.37
2018-02-27T14:12:46.807Z,2.87
2018-02-27T14:15:14.263Z,2.40
2018-02-27T14:17:41.747Z,3.07
2018-02-27T14:20:09.204Z,2.57
2018-02-27T14:22:36.692Z,2.50
2018-02-27T14:25:04.149Z,2.23
2018-02-27T14:27:31.627Z,4.00
2018-02-27T14:29:59.099Z,2.27
2018-02-27T14:32:26.625Z,2.23
2018-02-27T14:34:54.096Z,2.30
2018-02-27T14:37:21.830Z,2.47
2018-02-27T14:39:49.309Z,2.20
2018-02-27T14:42:16.792Z,3.33
2018-02-27T14:44:44.252Z,2.20
2018-02-27T14:47:11.728Z,4.07
2018-02-27T14:49:39.871Z,2.00
2018-02-27T14:52:07.343Z,2.30
2018-02-27T14:54:34.831Z,1.93
2018-02-27T14:57:02.326Z,2.50
2018-02-27T14:59:29.797Z,2.67
2018-02-27T15:01:57.280Z,2.87
2018-02-27T15:04:24.735Z,3.43
2018-02-27T15:06:52.246Z,2.17
2018-02-27T15:09:19.714Z,3.60
2018-02-27T15:11:47.196Z,1.90
2018-02-27T15:14:14.662Z,2.10
2018-02-27T15:16:42.160Z,3.40
2018-02-27T15:19:09.616Z,3.57
2018-02-27T15:21:37.080Z,2.43
2018-02-27T15:24:09.447Z,2.50
2018-02-27T15:26:36.945Z,1.90
2018-02-27T15:29:04.407Z,2.07
2018-02-27T15:31:31.866Z,2.10
2018-02-27T15:33:59.339Z,2.20
2018-02-27T15:36:26.806Z,3.47
2018-02-27T15:38:54.288Z,2.57
2018-02-27T15:41:21.773Z,2.97
2018-02-27T15:43:49.251Z,2.10
2018-02-27T15:46:16.716Z,2.50
2018-02-27T15:48:44.198Z,3.70
2018-02-27T15:51:11.650Z,3.93
2018-02-27T15:53:39.131Z,4.37
2018-02-27T15:56:06.599Z,2.23
2018-02-27T15:58:34.082Z,2.10
2018-02-27T16:01:01.540Z,2.50
2018-02-27T16:03:29.023Z,3.83
2018-02-27T16:05:56.482Z,3.00
2018-02-27T16:08:23.967Z,3.27
2018-02-27T16:10:51.428Z,3.13
2018-02-27T16:13:18.914Z,4.43
2018-02-27T16:15:46.379Z,2.87
2018-02-27T16:18:13.856Z,4.00
2018-02-27T16:20:41.315Z,2.60
2018-02-27T16:23:08.804Z,2.30
2018-02-27T16:25:36.251Z,2.43
2018-02-27T16:28:03.740Z,2.27
2018-02-27T16:30:31.247Z,3.23
2018-02-27T16:32:58.731Z,3.30
2018-02-27T16:35:26.188Z,3.93
2018-02-27T16:37:53.999Z,2.87
2018-02-27T16:40:21.486Z,2.87
2018-02-27T16:42:48.939Z,4.33
2018-02-27T16:45:16.418Z,5.40
2018-02-27T16:47:43.893Z,2.37
2018-02-27T16:50:11.374Z,2.27
2018-02-27T16:52:38.843Z,2.40
2018-02-27T16:55:06.332Z,2.27
2018-02-27T16:57:33.787Z,1.80
2018-02-27T17:00:01.273Z,3.73
2018-02-27T17:02:28.735Z,2.37
2018-02-27T17:04:56.220Z,2.50
2018-02-27T17:07:24.747Z,2.67
2018-02-27T17:09:52.278Z,2.50
2018-02-27T17:12:19.978Z,2.27
2018-02-27T17:14:52.191Z,2.37
2018-02-27T17:17:21.825Z,3.70
2018-02-27T17:19:56.630Z,2.13
2018-02-27T17:22:24.239Z,5.13
2018-02-27T17:24:51.921Z,2.17
2018-02-27T17:27:19.616Z,2.87
2018-02-27T17:29:47.243Z,3.93
2018-02-27T17:32:14.774Z,4.13
2018-02-27T17:34:42.261Z,3.10
2018-02-27T17:37:09.951Z,4.63
2018-02-27T17:39:37.602Z,4.30
2018-02-27T17:42:07.859Z,2.97
2018-02-27T17:44:36.405Z,4.30
2018-02-27T17:47:04.914Z,3.23
2018-02-27T17:49:33.027Z,3.67
2018-02-27T17:52:00.703Z,4.57
2018-02-27T17:54:38.663Z,3.73
2018-02-27T17:57:07.370Z,3.27
2018-02-27T17:59:35.325Z,3.93
2018-02-27T18:02:03.045Z,3.57
2018-02-27T18:04:30.805Z,4.70
2018-02-27T18:06:59.219Z,3.33
2018-02-27T18:09:26.716Z,4.20
2018-02-27T18:11:54.187Z,2.90
2018-02-27T18:14:23.180Z,2.77
2018-02-27T18:16:50.648Z,4.00
2018-02-27T18:19:18.136Z,3.87
2018-02-27T18:21:45.600Z,5.67
2018-02-27T18:24:13.395Z,4.30
2018-02-27T18:26:40.851Z,5.43
2018-02-27T18:29:08.307Z,4.20
2018-02-27T18:31:35.813Z,3.80
2018-02-27T18:34:03.294Z,3.40
2018-02-27T18:36:30.774Z,2.87
2018-02-27T18:38:58.239Z,3.77
2018-02-27T18:41:25.721Z,3.97
2018-02-27T18:43:53.315Z,3.70
2018-02-27T18:46:21.138Z,2.90
2018-02-27T18:48:48.608Z,5.07
2018-02-27T18:51:16.176Z,5.17
2018-02-27T18:53:44.061Z,5.23
2018-02-27T18:56:11.538Z,7.13
2018-02-27T18:58:38.996Z,4.10
2018-02-27T19:01:06.483Z,4.23
2018-02-27T19:03:33.949Z,5.83
2018-02-27T19:06:01.439Z,5.23
2018-02-27T19:08:28.920Z,6.43
2018-02-27T19:10:56.420Z,4.00
2018-02-27T19:13:23.884Z,5.23
2018-02-27T19:15:51.367Z,5.80
2018-02-27T19:18:18.827Z,6.17
2018-02-27T19:20:47.263Z,6.60
2018-02-27T19:23:14.739Z,4.10
2018-02-27T19:25:42.228Z,3.23
2018-02-27T19:28:09.697Z,3.40
2018-02-27T19:30:37.197Z,3.73
2018-02-27T19:33:04.667Z,4.23
2018-02-27T19:35:32.143Z,6.00
2018-02-27T19:37:59.601Z,7.47
2018-02-27T19:40:27.397Z,5.63
2018-02-27T19:42:54.820Z,4.20
2018-02-27T19:45:22.353Z,4.73
2018-02-27T19:47:49.859Z,4.00
2018-02-27T19:50:17.402Z,4.20
2018-02-27T19:52:44.900Z,4.70
2018-02-27T19:55:12.364Z,3.97
2018-02-27T19:57:39.850Z,5.00
2018-02-27T20:00:07.311Z,4.27
2018-02-27T20:02:34.805Z,5.57
2018-02-27T20:05:06.278Z,4.40
2018-02-27T20:07:33.775Z,4.30
2018-02-27T20:10:01.232Z,4.80
2018-02-27T20:12:28.736Z,4.60
2018-02-27T20:14:56.218Z,5.30
2018-02-27T20:17:23.703Z,4.37
2018-02-27T20:19:51.168Z,5.53
2018-02-27T20:22:18.647Z,4.97
2018-02-27T20:24:46.580Z,4.70
2018-02-27T20:27:14.059Z,7.80
2018-02-27T20:29:41.527Z,3.43
2018-02-27T20:32:09.003Z,5.30
2018-02-27T20:34:36.513Z,7.57
2018-02-27T20:37:10.003Z,6.27
2018-02-27T20:39:37.503Z,8.87
2018-02-27T20:42:05.029Z,6.33
2018-02-27T20:44:32.522Z,14.07
2018-02-27T20:47:00.025Z,9.83
2018-02-27T20:49:28.412Z,6.97
2018-02-27T20:51:55.895Z,9.60
2018-02-27T20:54:23.367Z,10.70
2018-02-27T20:56:50.843Z,9.43
2018-02-27T20:59:18.307Z,8.40
2018-02-27T21:01:45.795Z,10.17
2018-02-27T21:04:13.260Z,8.07
2018-02-27T21:06:40.744Z,8.80
2018-02-27T21:09:08.209Z,8.20
2018-02-27T21:11:35.687Z,8.20
2018-02-27T21:14:03.167Z,11.53
2018-02-27T21:16:30.624Z,9.47
2018-02-27T21:18:58.110Z,5.87
2018-02-27T21:21:25.648Z,8.63
2018-02-27T21:23:53.154Z,7.10
2018-02-27T21:26:20.629Z,7.57
2018-02-27T21:28:48.120Z,8.37
2018-02-27T21:31:19.550Z,6.47
2018-02-27T21:33:47.040Z,6.93
2018-02-27T21:36:14.876Z,10.23
2018-02-27T21:38:42.354Z,6.30
2018-02-27T21:41:09.813Z,6.43
2018-02-27T21:43:37.306Z,5.70
2018-02-27T21:46:04.775Z,5.73
2018-02-27T21:48:32.868Z,7.10
2018-02-27T21:51:00.654Z,7.77
2018-02-27T21:53:28.151Z,6.23
2018-02-27T21:55:55.613Z,8.77
2018-02-27T21:58:24.075Z,6.93
2018-02-27T22:00:51.687Z,6.90
2018-02-27T22:03:19.184Z,6.03
2018-02-27T22:05:46.658Z,6.57
2018-02-27T22:08:14.148Z,9.80
2018-02-27T22:10:41.624Z,7.37
2018-02-27T22:13:14.900Z,7.57
2018-02-27T22:15:42.384Z,6.57
2018-02-27T22:18:09.866Z,7.63
2018-02-27T22:20:43.031Z,7.50
2018-02-27T22:23:10.538Z,7.23
2018-02-27T22:25:38.006Z,5.83
2018-02-27T22:28:05.523Z,9.33
2018-02-27T22:30:33.018Z,7.10
2018-02-27T22:33:00.494Z,9.37
2018-02-27T22:35:27.983Z,7.70
2018-02-27T22:37:55.456Z,9.03
2018-02-27T22:40:23.573Z,7.03
2018-02-27T22:42:51.123Z,7.43
2018-02-27T22:45:19.532Z,9.13
2018-02-27T22:47:47.024Z,9.20
2018-02-27T22:50:14.503Z,9.87
2018-02-27T22:52:42.076Z,8.30
2018-02-27T22:55:09.563Z,8.87
2018-02-27T22:57:37.044Z,7.73
2018-02-27T23:00:04.509Z,7.13
2018-02-27T23:02:32.016Z,9.20
2018-02-27T23:04:59.467Z,6.63
2018-02-27T23:07:26.943Z,7.07
2018-02-27T23:09:54.407Z,9.57
2018-02-27T23:12:21.883Z,7.57
2018-02-27T23:14:49.340Z,9.33
2018-02-27T23:17:16.831Z,11.03
2018-02-27T23:19:44.289Z,8.37
2018-02-27T23:22:11.772Z,6.10
2018-02-27T23:24:41.213Z,5.60
2018-02-27T23:27:15.889Z,6.50
2018-02-27T23:29:43.499Z,9.77
2018-02-27T23:32:11.068Z,5.93
2018-02-27T23:34:48.308Z,8.10
2018-02-27T23:37:15.792Z,6.70
2018-02-27T23:39:43.239Z,8.87
2018-02-27T23:42:10.722Z,6.50
2018-02-27T23:44:38.194Z,7.13
2018-02-27T23:47:05.648Z,7.70
2018-02-27T23:49:33.144Z,5.73
2018-02-27T23:52:00.616Z,8.03
2018-02-27T23:54:28.105Z,5.83
2018-02-27T23:56:55.572Z,5.90
2018-02-27T23:59:23.048Z,6.33
